Terminal Aerodrome Forecast
Issued by NWS Mobile, AL

Home | Current Version | Previous Version | Text Only | Print | Product List | Glossary On
Versions: 1 2 3 4 5 6 7 8 9 10 11 12 13 14 15 16 17 18 19 20 21 22 23 24 25 26 27
672
FTUS44 KMOB 261435 AAA
TAFPNS
TAF AMD
KPNS 261435Z 2615/2712 05005KT P6SM VCTS BKN025CB
      TEMPO 2615/2618 VRB20KT 2SM TSRA BKN025CB
     FM261800 16014G20KT 3SM TSRA BKN025CB OVC035
      TEMPO 2618/2622 VRB20KT 2SM TSRA BKN025CB
     FM270000 21015KT 4SM BR VCSH OVC025=

USA.gov is the U.S. government's official web portal to all federal, state and local government web resources and services.